sensor_id;sensor_type;location;lat;lon;timestamp;P1;durP1;ratioP1;P2;durP2;ratioP2
81544;SDS011;70990;50.618;7.346;2024-03-02T00:02:40;1.63;;;0.88;;
81544;SDS011;70990;50.618;7.346;2024-03-02T00:05:11;3.15;;;1.25;;
81544;SDS011;70990;50.618;7.346;2024-03-02T00:07:41;3.35;;;1.30;;
81544;SDS011;70990;50.618;7.346;2024-03-02T00:10:09;1.42;;;0.82;;
81544;SDS011;70990;50.618;7.346;2024-03-02T00:12:38;1.73;;;0.88;;
81544;SDS011;70990;50.618;7.346;2024-03-02T00:18:11;2.30;;;0.88;;
81544;SDS011;70990;50.618;7.346;2024-03-02T00:20:40;3.50;;;1.10;;
81544;SDS011;70990;50.618;7.346;2024-03-02T00:23:08;2.03;;;1.00;;
81544;SDS011;70990;50.618;7.346;2024-03-02T00:28:16;4.78;;;1.20;;
81544;SDS011;70990;50.618;7.346;2024-03-02T00:33:27;3.60;;;1.23;;
81544;SDS011;70990;50.618;7.346;2024-03-02T00:35:56;5.03;;;1.35;;
81544;SDS011;70990;50.618;7.346;2024-03-02T00:38:23;2.50;;;1.20;;
81544;SDS011;70990;50.618;7.346;2024-03-02T00:40:50;3.17;;;0.90;;
81544;SDS011;70990;50.618;7.346;2024-03-02T00:46:12;3.08;;;1.00;;
81544;SDS011;70990;50.618;7.346;2024-03-02T00:48:47;1.95;;;1.02;;
81544;SDS011;70990;50.618;7.346;2024-03-02T00:51:19;2.67;;;1.05;;
81544;SDS011;70990;50.618;7.346;2024-03-02T00:53:45;3.72;;;1.30;;
81544;SDS011;70990;50.618;7.346;2024-03-02T00:56:12;2.22;;;0.80;;
81544;SDS011;70990;50.618;7.346;2024-03-02T00:58:38;0.95;;;0.73;;
81544;SDS011;70990;50.618;7.346;2024-03-02T01:01:05;3.10;;;1.27;;
81544;SDS011;70990;50.618;7.346;2024-03-02T01:03:33;2.47;;;1.20;;
81544;SDS011;70990;50.618;7.346;2024-03-02T01:06:00;1.23;;;0.43;;
81544;SDS011;70990;50.618;7.346;2024-03-02T01:08:27;1.95;;;0.90;;
81544;SDS011;70990;50.618;7.346;2024-03-02T01:10:54;2.78;;;0.90;;
81544;SDS011;70990;50.618;7.346;2024-03-02T01:13:21;1.60;;;0.70;;
81544;SDS011;70990;50.618;7.346;2024-03-02T01:15:49;1.90;;;0.88;;
81544;SDS011;70990;50.618;7.346;2024-03-02T01:18:16;1.52;;;0.85;;
81544;SDS011;70990;50.618;7.346;2024-03-02T01:20:42;2.08;;;0.93;;
81544;SDS011;70990;50.618;7.346;2024-03-02T01:23:09;1.55;;;0.68;;
81544;SDS011;70990;50.618;7.346;2024-03-02T01:25:36;4.22;;;0.95;;
81544;SDS011;70990;50.618;7.346;2024-03-02T01:28:03;1.92;;;0.88;;
81544;SDS011;70990;50.618;7.346;2024-03-02T01:30:31;4.07;;;1.00;;
81544;SDS011;70990;50.618;7.346;2024-03-02T01:32:57;1.20;;;0.50;;
81544;SDS011;70990;50.618;7.346;2024-03-02T01:35:24;3.10;;;1.05;;
81544;SDS011;70990;50.618;7.346;2024-03-02T01:37:50;3.42;;;1.45;;
81544;SDS011;70990;50.618;7.346;2024-03-02T01:40:17;2.35;;;0.90;;
81544;SDS011;70990;50.618;7.346;2024-03-02T01:42:43;3.38;;;1.00;;
81544;SDS011;70990;50.618;7.346;2024-03-02T01:45:10;4.32;;;0.88;;
81544;SDS011;70990;50.618;7.346;2024-03-02T01:47:37;2.85;;;1.02;;
81544;SDS011;70990;50.618;7.346;2024-03-02T01:50:04;3.05;;;1.10;;
81544;SDS011;70990;50.618;7.346;2024-03-02T01:52:30;2.63;;;0.80;;
81544;SDS011;70990;50.618;7.346;2024-03-02T01:54:57;2.20;;;0.63;;
81544;SDS011;70990;50.618;7.346;2024-03-02T01:57:24;2.25;;;0.90;;
81544;SDS011;70990;50.618;7.346;2024-03-02T01:59:50;3.92;;;1.23;;
81544;SDS011;70990;50.618;7.346;2024-03-02T02:02:17;2.15;;;0.75;;
81544;SDS011;70990;50.618;7.346;2024-03-02T02:04:44;2.13;;;0.73;;
81544;SDS011;70990;50.618;7.346;2024-03-02T02:07:10;2.47;;;1.02;;
81544;SDS011;70990;50.618;7.346;2024-03-02T02:09:37;1.70;;;0.57;;
81544;SDS011;70990;50.618;7.346;2024-03-02T02:12:04;2.67;;;1.13;;
81544;SDS011;70990;50.618;7.346;2024-03-02T02:14:30;2.65;;;0.80;;
81544;SDS011;70990;50.618;7.346;2024-03-02T02:16:57;3.85;;;1.05;;
81544;SDS011;70990;50.618;7.346;2024-03-02T02:19:24;2.42;;;0.80;;
81544;SDS011;70990;50.618;7.346;2024-03-02T02:21:52;1.17;;;0.60;;
81544;SDS011;70990;50.618;7.346;2024-03-02T02:24:19;1.98;;;0.77;;
81544;SDS011;70990;50.618;7.346;2024-03-02T02:26:45;2.47;;;0.80;;
81544;SDS011;70990;50.618;7.346;2024-03-02T02:29:12;2.03;;;0.93;;
81544;SDS011;70990;50.618;7.346;2024-03-02T02:31:39;4.57;;;1.00;;
81544;SDS011;70990;50.618;7.346;2024-03-02T02:34:06;1.90;;;0.90;;
81544;SDS011;70990;50.618;7.346;2024-03-02T02:36:33;2.33;;;0.80;;
81544;SDS011;70990;50.618;7.346;2024-03-02T02:39:02;2.05;;;0.98;;
81544;SDS011;70990;50.618;7.346;2024-03-02T02:41:30;3.03;;;1.05;;
81544;SDS011;70990;50.618;7.346;2024-03-02T02:43:56;2.55;;;1.10;;
81544;SDS011;70990;50.618;7.346;2024-03-02T02:46:23;3.35;;;0.90;;
81544;SDS011;70990;50.618;7.346;2024-03-02T02:48:49;1.02;;;0.60;;
81544;SDS011;70990;50.618;7.346;2024-03-02T02:51:16;1.73;;;0.82;;
81544;SDS011;70990;50.618;7.346;2024-03-02T02:53:43;1.42;;;0.70;;
81544;SDS011;70990;50.618;7.346;2024-03-02T02:56:09;4.85;;;1.23;;
81544;SDS011;70990;50.618;7.346;2024-03-02T02:58:36;1.80;;;0.70;;
81544;SDS011;70990;50.618;7.346;2024-03-02T03:01:02;2.03;;;0.90;;
81544;SDS011;70990;50.618;7.346;2024-03-02T03:03:29;0.65;;;0.50;;
81544;SDS011;70990;50.618;7.346;2024-03-02T03:05:56;2.20;;;1.10;;
81544;SDS011;70990;50.618;7.346;2024-03-02T03:08:22;2.42;;;1.02;;
81544;SDS011;70990;50.618;7.346;2024-03-02T03:10:49;2.70;;;0.90;;
81544;SDS011;70990;50.618;7.346;2024-03-02T03:13:15;1.58;;;0.73;;
81544;SDS011;70990;50.618;7.346;2024-03-02T03:15:42;4.32;;;1.00;;
81544;SDS011;70990;50.618;7.346;2024-03-02T03:18:08;2.75;;;1.00;;
81544;SDS011;70990;50.618;7.346;2024-03-02T03:20:35;2.17;;;1.00;;
81544;SDS011;70990;50.618;7.346;2024-03-02T03:23:02;5.32;;;1.00;;
81544;SDS011;70990;50.618;7.346;2024-03-02T03:25:29;2.55;;;1.08;;
81544;SDS011;70990;50.618;7.346;2024-03-02T03:27:56;3.08;;;1.20;;
81544;SDS011;70990;50.618;7.346;2024-03-02T03:30:22;5.60;;;1.45;;
81544;SDS011;70990;50.618;7.346;2024-03-02T03:32:50;2.15;;;0.93;;
81544;SDS011;70990;50.618;7.346;2024-03-02T03:35:17;3.45;;;1.27;;
81544;SDS011;70990;50.618;7.346;2024-03-02T03:37:43;4.22;;;1.50;;
81544;SDS011;70990;50.618;7.346;2024-03-02T03:40:10;4.00;;;1.23;;
81544;SDS011;70990;50.618;7.346;2024-03-02T03:42:37;3.80;;;1.50;;
81544;SDS011;70990;50.618;7.346;2024-03-02T03:45:04;6.00;;;1.42;;
81544;SDS011;70990;50.618;7.346;2024-03-02T03:47:32;4.10;;;1.33;;
81544;SDS011;70990;50.618;7.346;2024-03-02T03:49:58;2.80;;;1.02;;
81544;SDS011;70990;50.618;7.346;2024-03-02T03:52:25;3.92;;;1.73;;
81544;SDS011;70990;50.618;7.346;2024-03-02T03:54:52;4.75;;;1.40;;
81544;SDS011;70990;50.618;7.346;2024-03-02T03:57:18;4.10;;;1.27;;
81544;SDS011;70990;50.618;7.346;2024-03-02T03:59:45;4.28;;;1.85;;
81544;SDS011;70990;50.618;7.346;2024-03-02T04:02:11;5.63;;;1.30;;
81544;SDS011;70990;50.618;7.346;2024-03-02T04:04:38;3.75;;;1.50;;
81544;SDS011;70990;50.618;7.346;2024-03-02T04:07:04;1.83;;;0.85;;
81544;SDS011;70990;50.618;7.346;2024-03-02T04:09:31;3.55;;;1.17;;
81544;SDS011;70990;50.618;7.346;2024-03-02T04:11:57;4.18;;;1.60;;
81544;SDS011;70990;50.618;7.346;2024-03-02T04:14:24;4.93;;;2.13;;
81544;SDS011;70990;50.618;7.346;2024-03-02T04:16:50;5.47;;;1.58;;
81544;SDS011;70990;50.618;7.346;2024-03-02T04:19:17;5.88;;;2.03;;
81544;SDS011;70990;50.618;7.346;2024-03-02T04:21:43;9.13;;;2.42;;
81544;SDS011;70990;50.618;7.346;2024-03-02T04:24:10;6.40;;;2.53;;
81544;SDS011;70990;50.618;7.346;2024-03-02T04:26:36;4.68;;;1.70;;
81544;SDS011;70990;50.618;7.346;2024-03-02T04:29:03;6.88;;;2.42;;
81544;SDS011;70990;50.618;7.346;2024-03-02T04:31:29;3.65;;;1.58;;
81544;SDS011;70990;50.618;7.346;2024-03-02T04:33:56;7.70;;;2.60;;
81544;SDS011;70990;50.618;7.346;2024-03-02T04:36:22;4.95;;;2.30;;
81544;SDS011;70990;50.618;7.346;2024-03-02T04:38:49;6.53;;;2.92;;
81544;SDS011;70990;50.618;7.346;2024-03-02T04:41:15;7.63;;;2.30;;
81544;SDS011;70990;50.618;7.346;2024-03-02T04:43:42;5.22;;;1.98;;
81544;SDS011;70990;50.618;7.346;2024-03-02T04:46:09;5.05;;;2.03;;
81544;SDS011;70990;50.618;7.346;2024-03-02T04:48:35;6.72;;;2.28;;
81544;SDS011;70990;50.618;7.346;2024-03-02T04:51:02;5.22;;;2.20;;
81544;SDS011;70990;50.618;7.346;2024-03-02T04:53:29;4.53;;;2.05;;
81544;SDS011;70990;50.618;7.346;2024-03-02T04:55:56;6.57;;;2.53;;
81544;SDS011;70990;50.618;7.346;2024-03-02T04:58:22;6.88;;;2.88;;
81544;SDS011;70990;50.618;7.346;2024-03-02T05:00:49;8.63;;;3.55;;
81544;SDS011;70990;50.618;7.346;2024-03-02T05:03:15;3.92;;;1.63;;
81544;SDS011;70990;50.618;7.346;2024-03-02T05:05:42;4.28;;;2.00;;
81544;SDS011;70990;50.618;7.346;2024-03-02T05:08:11;6.30;;;2.95;;
81544;SDS011;70990;50.618;7.346;2024-03-02T05:10:37;8.85;;;3.28;;
81544;SDS011;70990;50.618;7.346;2024-03-02T05:13:03;7.47;;;3.03;;
81544;SDS011;70990;50.618;7.346;2024-03-02T05:15:30;4.90;;;2.10;;
81544;SDS011;70990;50.618;7.346;2024-03-02T05:17:57;6.10;;;2.35;;
81544;SDS011;70990;50.618;7.346;2024-03-02T05:20:23;7.65;;;2.80;;
81544;SDS011;70990;50.618;7.346;2024-03-02T05:22:50;5.90;;;2.70;;
81544;SDS011;70990;50.618;7.346;2024-03-02T05:25:16;5.95;;;2.53;;
81544;SDS011;70990;50.618;7.346;2024-03-02T05:27:43;7.93;;;2.67;;
81544;SDS011;70990;50.618;7.346;2024-03-02T05:30:09;4.57;;;1.60;;
81544;SDS011;70990;50.618;7.346;2024-03-02T05:32:36;7.07;;;2.90;;
81544;SDS011;70990;50.618;7.346;2024-03-02T05:35:03;8.80;;;3.38;;
81544;SDS011;70990;50.618;7.346;2024-03-02T05:37:30;5.93;;;2.75;;
81544;SDS011;70990;50.618;7.346;2024-03-02T05:39:56;8.15;;;3.58;;
81544;SDS011;70990;50.618;7.346;2024-03-02T05:42:23;4.80;;;2.10;;
81544;SDS011;70990;50.618;7.346;2024-03-02T05:44:49;7.80;;;3.47;;
81544;SDS011;70990;50.618;7.346;2024-03-02T05:47:16;9.85;;;3.67;;
81544;SDS011;70990;50.618;7.346;2024-03-02T05:49:43;6.88;;;2.47;;
81544;SDS011;70990;50.618;7.346;2024-03-02T05:52:09;7.93;;;3.30;;
81544;SDS011;70990;50.618;7.346;2024-03-02T05:54:36;11.77;;;3.45;;
81544;SDS011;70990;50.618;7.346;2024-03-02T05:57:02;9.50;;;3.35;;
81544;SDS011;70990;50.618;7.346;2024-03-02T05:59:29;8.45;;;3.90;;
81544;SDS011;70990;50.618;7.346;2024-03-02T06:01:56;7.30;;;3.28;;
81544;SDS011;70990;50.618;7.346;2024-03-02T06:04:22;8.55;;;3.42;;
81544;SDS011;70990;50.618;7.346;2024-03-02T06:06:49;10.07;;;4.03;;
81544;SDS011;70990;50.618;7.346;2024-03-02T06:09:16;8.80;;;3.17;;
81544;SDS011;70990;50.618;7.346;2024-03-02T06:11:42;5.28;;;2.55;;
81544;SDS011;70990;50.618;7.346;2024-03-02T06:14:09;4.43;;;1.90;;
81544;SDS011;70990;50.618;7.346;2024-03-02T06:16:36;7.13;;;2.85;;
81544;SDS011;70990;50.618;7.346;2024-03-02T06:19:05;4.75;;;2.33;;
81544;SDS011;70990;50.618;7.346;2024-03-02T06:21:31;4.78;;;2.47;;
81544;SDS011;70990;50.618;7.346;2024-03-02T06:23:58;8.98;;;3.33;;
81544;SDS011;70990;50.618;7.346;2024-03-02T06:26:24;5.70;;;2.85;;
81544;SDS011;70990;50.618;7.346;2024-03-02T06:28:51;8.50;;;3.00;;
81544;SDS011;70990;50.618;7.346;2024-03-02T06:31:18;8.20;;;2.83;;
81544;SDS011;70990;50.618;7.346;2024-03-02T06:33:46;9.40;;;3.53;;
81544;SDS011;70990;50.618;7.346;2024-03-02T06:36:13;7.53;;;3.13;;
81544;SDS011;70990;50.618;7.346;2024-03-02T06:38:39;9.55;;;3.58;;
81544;SDS011;70990;50.618;7.346;2024-03-02T06:41:08;5.22;;;2.25;;
81544;SDS011;70990;50.618;7.346;2024-03-02T06:43:35;8.20;;;3.63;;
81544;SDS011;70990;50.618;7.346;2024-03-02T06:46:01;6.45;;;2.88;;
81544;SDS011;70990;50.618;7.346;2024-03-02T06:48:28;4.90;;;1.88;;
81544;SDS011;70990;50.618;7.346;2024-03-02T06:50:55;7.38;;;3.17;;
81544;SDS011;70990;50.618;7.346;2024-03-02T06:53:22;6.45;;;3.13;;
81544;SDS011;70990;50.618;7.346;2024-03-02T06:55:48;6.32;;;2.70;;
81544;SDS011;70990;50.618;7.346;2024-03-02T06:58:14;7.78;;;3.30;;
81544;SDS011;70990;50.618;7.346;2024-03-02T07:00:42;6.22;;;2.30;;
81544;SDS011;70990;50.618;7.346;2024-03-02T07:03:09;5.63;;;2.42;;
81544;SDS011;70990;50.618;7.346;2024-03-02T07:05:35;8.63;;;2.83;;
81544;SDS011;70990;50.618;7.346;2024-03-02T07:08:02;8.00;;;3.30;;
81544;SDS011;70990;50.618;7.346;2024-03-02T07:10:29;6.43;;;2.50;;
81544;SDS011;70990;50.618;7.346;2024-03-02T07:12:55;8.25;;;3.40;;
81544;SDS011;70990;50.618;7.346;2024-03-02T07:15:22;7.13;;;3.20;;
81544;SDS011;70990;50.618;7.346;2024-03-02T07:17:48;6.82;;;3.00;;
81544;SDS011;70990;50.618;7.346;2024-03-02T07:20:15;7.72;;;3.13;;
81544;SDS011;70990;50.618;7.346;2024-03-02T07:22:42;6.13;;;2.83;;
81544;SDS011;70990;50.618;7.346;2024-03-02T07:25:10;6.15;;;2.38;;
81544;SDS011;70990;50.618;7.346;2024-03-02T07:27:56;8.90;;;2.50;;
81544;SDS011;70990;50.618;7.346;2024-03-02T07:30:23;7.85;;;2.63;;
81544;SDS011;70990;50.618;7.346;2024-03-02T07:32:50;5.15;;;2.03;;
81544;SDS011;70990;50.618;7.346;2024-03-02T07:35:17;8.20;;;3.28;;
81544;SDS011;70990;50.618;7.346;2024-03-02T07:37:43;7.63;;;2.85;;
81544;SDS011;70990;50.618;7.346;2024-03-02T07:40:10;6.05;;;2.63;;
81544;SDS011;70990;50.618;7.346;2024-03-02T07:42:38;10.20;;;2.83;;
81544;SDS011;70990;50.618;7.346;2024-03-02T07:45:06;8.52;;;2.85;;
81544;SDS011;70990;50.618;7.346;2024-03-02T07:47:33;7.13;;;2.30;;
81544;SDS011;70990;50.618;7.346;2024-03-02T07:50:01;8.95;;;2.42;;
81544;SDS011;70990;50.618;7.346;2024-03-02T07:52:28;3.72;;;1.52;;
81544;SDS011;70990;50.618;7.346;2024-03-02T07:54:54;7.10;;;2.60;;
81544;SDS011;70990;50.618;7.346;2024-03-02T07:57:21;7.18;;;1.75;;
81544;SDS011;70990;50.618;7.346;2024-03-02T07:59:48;6.88;;;2.55;;
81544;SDS011;70990;50.618;7.346;2024-03-02T08:02:14;5.20;;;2.08;;
81544;SDS011;70990;50.618;7.346;2024-03-02T08:04:41;5.53;;;1.85;;
81544;SDS011;70990;50.618;7.346;2024-03-02T08:07:07;6.30;;;2.10;;
81544;SDS011;70990;50.618;7.346;2024-03-02T08:09:35;7.68;;;2.10;;
81544;SDS011;70990;50.618;7.346;2024-03-02T08:12:01;5.45;;;2.17;;
81544;SDS011;70990;50.618;7.346;2024-03-02T08:14:28;6.55;;;2.53;;
81544;SDS011;70990;50.618;7.346;2024-03-02T08:16:54;6.25;;;2.20;;
81544;SDS011;70990;50.618;7.346;2024-03-02T08:19:21;6.55;;;2.38;;
81544;SDS011;70990;50.618;7.346;2024-03-02T08:21:47;7.45;;;2.50;;
81544;SDS011;70990;50.618;7.346;2024-03-02T08:24:14;5.35;;;2.50;;
81544;SDS011;70990;50.618;7.346;2024-03-02T08:26:41;5.93;;;2.17;;
81544;SDS011;70990;50.618;7.346;2024-03-02T08:29:07;7.75;;;2.33;;
81544;SDS011;70990;50.618;7.346;2024-03-02T08:31:34;5.05;;;1.70;;
81544;SDS011;70990;50.618;7.346;2024-03-02T08:34:02;7.20;;;2.22;;
81544;SDS011;70990;50.618;7.346;2024-03-02T08:36:29;5.40;;;1.48;;
81544;SDS011;70990;50.618;7.346;2024-03-02T08:38:55;5.78;;;1.73;;
81544;SDS011;70990;50.618;7.346;2024-03-02T08:41:22;6.65;;;2.47;;
81544;SDS011;70990;50.618;7.346;2024-03-02T08:43:48;4.93;;;2.00;;
81544;SDS011;70990;50.618;7.346;2024-03-02T08:46:15;7.40;;;1.98;;
81544;SDS011;70990;50.618;7.346;2024-03-02T08:48:41;5.45;;;1.73;;
81544;SDS011;70990;50.618;7.346;2024-03-02T08:51:08;5.13;;;1.70;;
81544;SDS011;70990;50.618;7.346;2024-03-02T08:53:35;4.22;;;1.63;;
81544;SDS011;70990;50.618;7.346;2024-03-02T08:56:02;5.55;;;2.25;;
81544;SDS011;70990;50.618;7.346;2024-03-02T08:58:29;6.82;;;2.13;;
81544;SDS011;70990;50.618;7.346;2024-03-02T09:00:55;8.07;;;2.28;;
81544;SDS011;70990;50.618;7.346;2024-03-02T09:03:22;3.63;;;1.33;;
81544;SDS011;70990;50.618;7.346;2024-03-02T09:05:49;5.18;;;1.75;;
81544;SDS011;70990;50.618;7.346;2024-03-02T09:08:15;4.35;;;1.65;;
81544;SDS011;70990;50.618;7.346;2024-03-02T09:10:41;4.78;;;1.88;;
81544;SDS011;70990;50.618;7.346;2024-03-02T09:13:08;2.70;;;1.13;;
81544;SDS011;70990;50.618;7.346;2024-03-02T09:15:35;5.22;;;1.90;;
81544;SDS011;70990;50.618;7.346;2024-03-02T09:18:03;5.95;;;2.03;;
81544;SDS011;70990;50.618;7.346;2024-03-02T09:20:30;4.28;;;1.70;;
81544;SDS011;70990;50.618;7.346;2024-03-02T09:22:56;4.65;;;1.67;;
81544;SDS011;70990;50.618;7.346;2024-03-02T09:25:22;4.28;;;1.73;;
81544;SDS011;70990;50.618;7.346;2024-03-02T09:27:49;5.13;;;1.90;;
81544;SDS011;70990;50.618;7.346;2024-03-02T09:30:15;5.68;;;1.70;;
81544;SDS011;70990;50.618;7.346;2024-03-02T09:32:43;5.90;;;2.00;;
81544;SDS011;70990;50.618;7.346;2024-03-02T09:35:12;5.13;;;1.42;;
81544;SDS011;70990;50.618;7.346;2024-03-02T09:37:38;2.40;;;1.10;;
81544;SDS011;70990;50.618;7.346;2024-03-02T09:40:05;3.08;;;1.30;;
81544;SDS011;70990;50.618;7.346;2024-03-02T09:42:32;6.38;;;1.77;;
81544;SDS011;70990;50.618;7.346;2024-03-02T09:44:59;3.35;;;1.48;;
81544;SDS011;70990;50.618;7.346;2024-03-02T09:47:25;3.03;;;1.33;;
81544;SDS011;70990;50.618;7.346;2024-03-02T09:49:52;4.05;;;1.52;;
81544;SDS011;70990;50.618;7.346;2024-03-02T09:52:19;2.50;;;1.20;;
81544;SDS011;70990;50.618;7.346;2024-03-02T09:54:47;3.90;;;1.10;;
81544;SDS011;70990;50.618;7.346;2024-03-02T09:57:14;3.03;;;1.30;;
81544;SDS011;70990;50.618;7.346;2024-03-02T09:59:41;3.63;;;1.10;;
81544;SDS011;70990;50.618;7.346;2024-03-02T10:02:07;3.22;;;1.30;;
81544;SDS011;70990;50.618;7.346;2024-03-02T10:04:34;3.50;;;1.40;;
81544;SDS011;70990;50.618;7.346;2024-03-02T10:07:14;3.95;;;1.30;;
81544;SDS011;70990;50.618;7.346;2024-03-02T10:09:45;2.10;;;0.95;;
81544;SDS011;70990;50.618;7.346;2024-03-02T10:12:13;2.83;;;1.05;;
81544;SDS011;70990;50.618;7.346;2024-03-02T10:14:42;3.90;;;1.00;;
81544;SDS011;70990;50.618;7.346;2024-03-02T10:17:10;5.20;;;1.58;;
81544;SDS011;70990;50.618;7.346;2024-03-02T10:19:38;4.18;;;1.42;;
81544;SDS011;70990;50.618;7.346;2024-03-02T10:22:09;3.20;;;1.17;;
81544;SDS011;70990;50.618;7.346;2024-03-02T10:24:40;3.95;;;1.40;;
81544;SDS011;70990;50.618;7.346;2024-03-02T10:27:09;2.40;;;1.05;;
81544;SDS011;70990;50.618;7.346;2024-03-02T10:29:41;4.78;;;1.70;;
81544;SDS011;70990;50.618;7.346;2024-03-02T10:32:08;3.92;;;1.40;;
81544;SDS011;70990;50.618;7.346;2024-03-02T10:34:37;2.13;;;1.10;;
81544;SDS011;70990;50.618;7.346;2024-03-02T10:37:04;2.65;;;1.08;;
81544;SDS011;70990;50.618;7.346;2024-03-02T10:39:32;2.33;;;0.95;;
81544;SDS011;70990;50.618;7.346;2024-03-02T10:42:00;4.15;;;1.40;;
81544;SDS011;70990;50.618;7.346;2024-03-02T10:44:28;3.75;;;1.13;;
81544;SDS011;70990;50.618;7.346;2024-03-02T10:46:56;3.05;;;1.20;;
81544;SDS011;70990;50.618;7.346;2024-03-02T10:49:26;3.67;;;1.45;;
81544;SDS011;70990;50.618;7.346;2024-03-02T10:51:55;2.92;;;1.27;;
81544;SDS011;70990;50.618;7.346;2024-03-02T10:54:21;3.35;;;1.20;;
81544;SDS011;70990;50.618;7.346;2024-03-02T10:56:48;4.60;;;1.52;;
81544;SDS011;70990;50.618;7.346;2024-03-02T10:59:34;4.40;;;1.67;;
81544;SDS011;70990;50.618;7.346;2024-03-02T11:02:02;4.00;;;1.40;;
81544;SDS011;70990;50.618;7.346;2024-03-02T11:04:32;2.67;;;1.08;;
81544;SDS011;70990;50.618;7.346;2024-03-02T11:07:02;3.35;;;1.40;;
81544;SDS011;70990;50.618;7.346;2024-03-02T11:09:34;1.85;;;1.02;;
81544;SDS011;70990;50.618;7.346;2024-03-02T11:12:08;5.07;;;1.05;;
81544;SDS011;70990;50.618;7.346;2024-03-02T11:14:42;3.90;;;1.38;;
81544;SDS011;70990;50.618;7.346;2024-03-02T11:17:08;3.15;;;1.30;;
81544;SDS011;70990;50.618;7.346;2024-03-02T11:19:36;1.52;;;0.73;;
81544;SDS011;70990;50.618;7.346;2024-03-02T11:22:05;1.83;;;0.80;;
81544;SDS011;70990;50.618;7.346;2024-03-02T11:24:32;4.53;;;1.50;;
81544;SDS011;70990;50.618;7.346;2024-03-02T11:27:04;3.38;;;1.10;;
81544;SDS011;70990;50.618;7.346;2024-03-02T11:32:02;3.97;;;1.48;;
81544;SDS011;70990;50.618;7.346;2024-03-02T11:34:30;3.72;;;1.58;;
81544;SDS011;70990;50.618;7.346;2024-03-02T11:37:03;4.82;;;1.58;;
81544;SDS011;70990;50.618;7.346;2024-03-02T11:39:30;3.60;;;1.30;;
81544;SDS011;70990;50.618;7.346;2024-03-02T11:41:58;3.03;;;1.40;;
81544;SDS011;70990;50.618;7.346;2024-03-02T11:44:26;4.57;;;1.30;;
81544;SDS011;70990;50.618;7.346;2024-03-02T11:47:00;6.80;;;2.08;;
81544;SDS011;70990;50.618;7.346;2024-03-02T11:49:36;10.25;;;2.58;;
81544;SDS011;70990;50.618;7.346;2024-03-02T11:52:09;10.25;;;3.20;;
81544;SDS011;70990;50.618;7.346;2024-03-02T11:54:37;10.70;;;2.92;;
81544;SDS011;70990;50.618;7.346;2024-03-02T11:57:07;6.35;;;2.38;;
81544;SDS011;70990;50.618;7.346;2024-03-02T11:59:34;6.90;;;2.35;;
81544;SDS011;70990;50.618;7.346;2024-03-02T12:02:01;5.03;;;1.80;;
81544;SDS011;70990;50.618;7.346;2024-03-02T12:04:28;3.53;;;1.42;;
81544;SDS011;70990;50.618;7.346;2024-03-02T12:06:55;4.25;;;1.65;;
81544;SDS011;70990;50.618;7.346;2024-03-02T12:09:23;5.43;;;1.75;;
81544;SDS011;70990;50.618;7.346;2024-03-02T12:12:00;3.35;;;1.40;;
81544;SDS011;70990;50.618;7.346;2024-03-02T12:14:31;5.03;;;1.50;;
81544;SDS011;70990;50.618;7.346;2024-03-02T12:16:58;3.70;;;1.35;;
81544;SDS011;70990;50.618;7.346;2024-03-02T12:19:26;3.58;;;1.38;;
81544;SDS011;70990;50.618;7.346;2024-03-02T12:21:53;3.85;;;1.50;;
81544;SDS011;70990;50.618;7.346;2024-03-02T12:24:22;4.70;;;1.23;;
81544;SDS011;70990;50.618;7.346;2024-03-02T12:26:49;1.77;;;0.77;;
81544;SDS011;70990;50.618;7.346;2024-03-02T12:29:18;3.22;;;0.80;;
81544;SDS011;70990;50.618;7.346;2024-03-02T12:31:49;1.73;;;0.80;;
81544;SDS011;70990;50.618;7.346;2024-03-02T12:34:17;1.85;;;0.57;;
81544;SDS011;70990;50.618;7.346;2024-03-02T12:36:45;1.63;;;0.70;;
81544;SDS011;70990;50.618;7.346;2024-03-02T12:39:12;1.52;;;0.70;;
81544;SDS011;70990;50.618;7.346;2024-03-02T12:41:39;2.67;;;0.98;;
81544;SDS011;70990;50.618;7.346;2024-03-02T12:44:05;6.15;;;1.10;;
81544;SDS011;70990;50.618;7.346;2024-03-02T12:46:32;2.42;;;1.00;;
81544;SDS011;70990;50.618;7.346;2024-03-02T12:49:04;2.95;;;1.23;;
81544;SDS011;70990;50.618;7.346;2024-03-02T12:51:34;2.53;;;0.90;;
81544;SDS011;70990;50.618;7.346;2024-03-02T12:54:01;2.60;;;1.08;;
81544;SDS011;70990;50.618;7.346;2024-03-02T12:56:28;2.90;;;1.10;;
81544;SDS011;70990;50.618;7.346;2024-03-02T12:59:04;1.40;;;0.80;;
81544;SDS011;70990;50.618;7.346;2024-03-02T13:01:32;4.20;;;1.13;;
81544;SDS011;70990;50.618;7.346;2024-03-02T13:03:59;4.57;;;1.10;;
81544;SDS011;70990;50.618;7.346;2024-03-02T13:06:27;3.78;;;1.40;;
81544;SDS011;70990;50.618;7.346;2024-03-02T13:08:53;1.23;;;0.70;;
81544;SDS011;70990;50.618;7.346;2024-03-02T13:11:21;1.27;;;0.88;;
81544;SDS011;70990;50.618;7.346;2024-03-02T13:13:51;3.85;;;1.13;;
81544;SDS011;70990;50.618;7.346;2024-03-02T13:16:18;2.53;;;0.80;;
81544;SDS011;70990;50.618;7.346;2024-03-02T13:18:48;3.22;;;1.10;;
81544;SDS011;70990;50.618;7.346;2024-03-02T13:21:15;1.33;;;0.80;;
81544;SDS011;70990;50.618;7.346;2024-03-02T13:23:42;3.35;;;0.93;;
81544;SDS011;70990;50.618;7.346;2024-03-02T13:26:08;2.55;;;0.98;;
81544;SDS011;70990;50.618;7.346;2024-03-02T13:28:35;2.88;;;1.13;;
81544;SDS011;70990;50.618;7.346;2024-03-02T13:31:01;2.53;;;0.80;;
81544;SDS011;70990;50.618;7.346;2024-03-02T13:33:29;2.28;;;0.90;;
81544;SDS011;70990;50.618;7.346;2024-03-02T13:35:56;1.70;;;0.70;;
81544;SDS011;70990;50.618;7.346;2024-03-02T13:38:22;2.50;;;0.90;;
81544;SDS011;70990;50.618;7.346;2024-03-02T13:40:49;2.70;;;0.75;;
81544;SDS011;70990;50.618;7.346;2024-03-02T13:43:16;2.03;;;0.90;;
81544;SDS011;70990;50.618;7.346;2024-03-02T13:45:43;2.00;;;0.80;;
81544;SDS011;70990;50.618;7.346;2024-03-02T13:48:09;2.95;;;1.02;;
81544;SDS011;70990;50.618;7.346;2024-03-02T13:50:36;3.15;;;0.82;;
81544;SDS011;70990;50.618;7.346;2024-03-02T13:53:02;3.17;;;0.95;;
81544;SDS011;70990;50.618;7.346;2024-03-02T13:55:29;2.72;;;0.75;;
81544;SDS011;70990;50.618;7.346;2024-03-02T13:57:56;2.92;;;1.02;;
81544;SDS011;70990;50.618;7.346;2024-03-02T14:00:22;1.27;;;0.60;;
81544;SDS011;70990;50.618;7.346;2024-03-02T14:02:49;1.15;;;0.73;;
81544;SDS011;70990;50.618;7.346;2024-03-02T14:05:16;3.20;;;0.90;;
81544;SDS011;70990;50.618;7.346;2024-03-02T14:07:42;2.55;;;0.77;;
81544;SDS011;70990;50.618;7.346;2024-03-02T14:10:09;2.38;;;0.80;;
81544;SDS011;70990;50.618;7.346;2024-03-02T14:12:36;1.45;;;0.65;;
81544;SDS011;70990;50.618;7.346;2024-03-02T14:15:03;4.22;;;1.00;;
81544;SDS011;70990;50.618;7.346;2024-03-02T14:17:30;0.75;;;0.40;;
81544;SDS011;70990;50.618;7.346;2024-03-02T14:19:57;3.22;;;1.13;;
81544;SDS011;70990;50.618;7.346;2024-03-02T14:22:23;2.15;;;0.85;;
81544;SDS011;70990;50.618;7.346;2024-03-02T14:24:50;0.93;;;0.52;;
81544;SDS011;70990;50.618;7.346;2024-03-02T14:27:17;0.93;;;0.80;;
81544;SDS011;70990;50.618;7.346;2024-03-02T14:30:03;2.42;;;0.70;;
81544;SDS011;70990;50.618;7.346;2024-03-02T14:32:30;1.77;;;0.77;;
81544;SDS011;70990;50.618;7.346;2024-03-02T14:34:56;2.60;;;0.80;;
81544;SDS011;70990;50.618;7.346;2024-03-02T14:37:23;0.95;;;0.55;;
81544;SDS011;70990;50.618;7.346;2024-03-02T14:39:49;1.52;;;0.70;;
81544;SDS011;70990;50.618;7.346;2024-03-02T14:42:16;1.02;;;0.50;;
81544;SDS011;70990;50.618;7.346;2024-03-02T14:44:43;0.40;;;0.40;;
81544;SDS011;70990;50.618;7.346;2024-03-02T14:47:09;1.05;;;0.60;;
81544;SDS011;70990;50.618;7.346;2024-03-02T14:49:36;0.50;;;0.40;;
81544;SDS011;70990;50.618;7.346;2024-03-02T14:52:03;1.02;;;0.43;;
81544;SDS011;70990;50.618;7.346;2024-03-02T14:54:30;1.92;;;0.60;;
81544;SDS011;70990;50.618;7.346;2024-03-02T14:56:57;2.13;;;1.10;;
81544;SDS011;70990;50.618;7.346;2024-03-02T14:59:23;1.10;;;0.40;;
81544;SDS011;70990;50.618;7.346;2024-03-02T15:01:50;4.38;;;1.23;;
81544;SDS011;70990;50.618;7.346;2024-03-02T15:04:16;5.40;;;1.80;;